Time;durP1;ratioP1;P1;durP2;ratioP2;P2;SDS_P1;SDS_P2;PMS_P1;PMS_P2;Temp;Humidity;BMP_temperature;BMP_pressure;BME280_temperature;BME280_humidity;BME280_pressure;Samples;Min_cycle;Max_cycle;Signal;HPM_P1;HPM_P2
2021/07/13 00:01:09;;;;;;;;;;;18.60;99.90;;;;;;5036803;28;20048;-76
2021/07/13 00:03:36;;;;;;;88.82;55.33;;;18.60;99.90;;;;;;5035144;28;19917;-76
2021/07/13 00:06:03;;;;;;;;;;;18.60;99.90;;;;;;5034578;28;20047;-76
2021/07/13 00:08:29;;;;;;;86.97;57.40;;;18.60;99.90;;;;;;5029422;28;19921;-76
2021/07/13 00:10:54;;;;;;;;;;;18.50;99.90;;;;;;5030814;28;20049;-75
2021/07/13 00:13:20;;;;;;;88.60;56.78;;;18.50;99.90;;;;;;5044104;28;19920;-76
2021/07/13 00:15:46;;;;;;;;;;;18.50;99.90;;;;;;5033635;28;20395;-76
2021/07/13 00:18:12;;;;;;;89.57;56.42;;;18.50;99.90;;;;;;5037290;28;20358;-76
2021/07/13 00:20:38;;;;;;;84.63;55.47;;;18.50;99.90;;;;;;5013990;28;20513;-75
2021/07/13 00:23:04;;;;;;;;;;;18.60;99.90;;;;;;5013334;28;20152;-77
2021/07/13 00:25:31;;;;;;;83.72;51.33;;;18.60;99.90;;;;;;5017116;28;19917;-76
2021/07/13 00:27:57;;;;;;;84.95;56.03;;;18.60;99.90;;;;;;5036805;28;20479;-77
2021/07/13 00:30:24;;;;;;;84.47;53.08;;;18.60;99.90;;;;;;5040459;28;20533;-76
2021/07/13 00:32:51;;;;;;;80.78;52.03;;;18.70;99.90;;;;;;5034289;28;20124;-76
2021/07/13 00:35:18;;;;;;;80.55;51.45;;;18.60;99.90;;;;;;5030829;28;20036;-76
2021/07/13 00:37:46;;;;;;;79.30;52.95;;;18.70;99.90;;;;;;5030702;28;20144;-77
2021/07/13 00:40:13;;;;;;;76.60;50.17;;;18.70;99.90;;;;;;5030796;28;20041;-77
2021/07/13 00:42:40;;;;;;;73.13;48.97;;;18.60;99.90;;;;;;5030727;28;20124;-77
2021/07/13 00:45:06;;;;;;;76.45;50.33;;;18.60;99.90;;;;;;5044749;28;20034;-75
2021/07/13 00:47:32;;;;;;;75.05;49.65;;;18.60;99.90;;;;;;5034439;28;20059;-76
2021/07/13 00:50:00;;;;;;;75.63;51.13;;;18.60;99.90;;;;;;5045393;28;20045;-78
2021/07/13 00:52:27;;;;;;;78.53;51.55;;;18.60;99.90;;;;;;5012273;28;20419;-78
2021/07/13 00:54:53;;;;;;;76.03;48.67;;;18.60;99.90;;;;;;5032158;28;20033;-77
2021/07/13 00:57:19;;;;;;;74.70;49.47;;;18.50;99.90;;;;;;5041387;28;20437;-77
2021/07/13 00:59:47;;;;;;;75.65;51.03;;;18.50;99.90;;;;;;5038567;28;20037;-79
2021/07/13 01:02:14;;;;;;;77.00;53.08;;;18.50;99.90;;;;;;5048699;28;20128;-80
2021/07/13 01:04:44;;;;;;;78.75;52.55;;;18.50;99.90;;;;;;5004267;28;20041;-81
2021/07/13 01:07:21;;;;;;;83.90;53.42;;;18.50;99.90;;;;;;5050727;28;20035;-79
2021/07/13 01:09:56;;;;;;;85.28;54.72;;;18.50;99.90;;;;;;5039319;28;20110;-78
2021/07/13 01:13:00;;;;;;;81.77;54.37;;;18.50;99.90;;;;;;5052201;28;20116;-81
2021/07/13 01:15:29;;;;;;;86.75;55.50;;;18.50;99.90;;;;;;5045308;28;20048;-76
2021/07/13 01:18:01;;;;;;;79.88;54.90;;;18.50;99.90;;;;;;5047687;28;20056;-79
2021/07/13 01:20:54;;;;;;;85.35;54.42;;;18.50;99.90;;;;;;5035918;28;20048;-78
2021/07/13 01:23:45;;;;;;;79.70;52.38;;;18.50;99.90;;;;;;5049502;28;20056;-78
2021/07/13 01:26:51;;;;;;;82.55;52.40;;;18.50;99.90;;;;;;5046141;28;20041;-77
2021/07/13 01:29:18;;;;;;;84.30;53.97;;;18.40;99.90;;;;;;5047795;28;20057;-80
2021/07/13 01:31:47;;;;;;;85.30;54.17;;;18.40;99.90;;;;;;5051191;28;20045;-77
2021/07/13 01:34:39;;;;;;;85.22;54.20;;;18.40;99.90;;;;;;5016718;28;20474;-79
2021/07/13 01:37:09;;;;;;;81.60;53.38;;;18.40;99.90;;;;;;5039933;28;20444;-77
2021/07/13 01:39:36;;;;;;;85.97;54.00;;;18.40;99.90;;;;;;5027680;28;20378;-77
2021/07/13 01:42:06;;;;;;;86.80;53.97;;;18.40;99.90;;;;;;5034454;28;20046;-77
2021/07/13 01:44:35;;;;;;;85.65;54.92;;;18.40;99.90;;;;;;5033760;28;20106;-76
2021/07/13 01:47:00;;;;;;;85.60;54.85;;;18.40;99.90;;;;;;5033836;28;20426;-78
2021/07/13 01:49:27;;;;;;;;;;;18.40;99.90;;;;;;5038528;28;20041;-77
2021/07/13 01:51:55;;;;;;;85.47;53.50;;;18.30;99.90;;;;;;5030499;28;20362;-77
2021/07/13 01:54:24;;;;;;;87.30;54.08;;;18.30;99.90;;;;;;5029420;28;20094;-79
2021/07/13 01:56:54;;;;;;;92.30;57.35;;;18.30;99.90;;;;;;5033747;28;20084;-78
2021/07/13 01:59:21;;;;;;;95.75;57.10;;;18.30;99.90;;;;;;5031151;28;20037;-76
2021/07/13 02:01:48;;;;;;;86.22;56.95;;;18.20;99.90;;;;;;5033968;28;20045;-77
2021/07/13 02:04:16;;;;;;;91.32;56.22;;;18.20;99.90;;;;;;5039594;28;20060;-77
2021/07/13 02:06:43;;;;;;;79.75;53.25;;;18.20;99.90;;;;;;5033564;28;20399;-81
2021/07/13 02:09:14;;;;;;;86.82;54.85;;;18.20;99.90;;;;;;5045843;28;20063;-79
2021/07/13 02:11:44;;;;;;;87.35;54.22;;;18.10;99.90;;;;;;5035796;28;20487;-80
2021/07/13 02:14:11;;;;;;;85.18;53.42;;;18.10;99.90;;;;;;5032294;28;20033;-81
2021/07/13 02:16:37;;;;;;;80.15;51.25;;;18.20;99.90;;;;;;5045973;28;20517;-81
2021/07/13 02:19:05;;;;;;;78.35;51.38;;;18.10;99.90;;;;;;5035155;28;20045;-80
2021/07/13 02:21:32;;;;;;;82.13;54.08;;;18.20;99.90;;;;;;5046015;28;20149;-80
2021/07/13 02:23:59;;;;;;;83.55;53.10;;;18.20;99.90;;;;;;5042890;28;20106;-81
2021/07/13 02:26:34;;;;;;;78.90;52.63;;;18.20;99.90;;;;;;5056703;28;20044;-79
2021/07/13 02:29:10;;;;;;;81.45;52.33;;;18.20;99.90;;;;;;5043413;28;20124;-81
2021/07/13 02:31:41;;;;;;;82.25;53.58;;;18.20;99.90;;;;;;5038477;28;20069;-81
2021/07/13 02:34:15;;;;;;;83.35;51.03;;;18.20;99.90;;;;;;5047300;28;20041;-78
2021/07/13 02:36:49;;;;;;;84.63;52.45;;;18.20;99.90;;;;;;5039198;28;20041;-81
2021/07/13 02:39:17;;;;;;;83.82;53.78;;;18.20;99.90;;;;;;5040564;28;20033;-81
2021/07/13 02:41:46;;;;;;;79.40;51.00;;;18.20;99.90;;;;;;5046487;28;20071;-81
2021/07/13 02:44:13;;;;;;;80.72;54.40;;;18.20;99.90;;;;;;5028584;28;20036;-81
2021/07/13 02:46:43;;;;;;;79.75;51.38;;;18.20;99.90;;;;;;5044971;28;20044;-79
2021/07/13 02:49:17;;;;;;;76.68;50.83;;;18.10;99.90;;;;;;5051441;28;20461;-80
2021/07/13 02:51:44;;;;;;;85.50;53.22;;;18.10;99.90;;;;;;5041434;28;20049;-80
2021/07/13 02:54:10;;;;;;;87.25;54.67;;;18.10;99.90;;;;;;5038008;28;20099;-82
2021/07/13 02:56:39;;;;;;;80.47;51.40;;;18.00;99.90;;;;;;5046244;28;20044;-80
2021/07/13 02:59:07;;;;;;;78.53;50.40;;;18.00;99.90;;;;;;5049418;28;20091;-79
2021/07/13 03:01:33;;;;;;;84.35;53.50;;;18.00;99.90;;;;;;5052141;28;20045;-79
2021/07/13 03:04:03;;;;;;;81.55;51.10;;;17.90;99.90;;;;;;5049772;28;20033;-79
2021/07/13 03:06:29;;;;;;;79.88;51.22;;;17.90;99.90;;;;;;5049547;28;20037;-81
2021/07/13 03:08:55;;;;;;;84.30;53.05;;;17.90;99.90;;;;;;5029126;28;20053;-79
2021/07/13 03:11:21;;;;;;;87.85;53.13;;;17.70;99.90;;;;;;5044495;28;20487;-79
2021/07/13 03:13:47;;;;;;;86.72;53.45;;;17.80;99.90;;;;;;5029860;28;20558;-81
2021/07/13 03:16:14;;;;;;;86.38;55.05;;;17.80;99.90;;;;;;5052350;28;20052;-80
2021/07/13 03:18:40;;;;;;;104.43;56.88;;;17.80;99.90;;;;;;5045734;28;20041;-80
2021/07/13 03:21:06;;;;;;;;;;;17.80;99.90;;;;;;5051234;28;20041;-80
2021/07/13 03:23:39;;;;;;;95.25;58.05;;;17.80;99.90;;;;;;5041910;28;19924;-80
2021/07/13 03:26:07;;;;;;;92.15;57.95;;;17.80;99.90;;;;;;5050679;28;20029;-80
2021/07/13 03:28:34;;;;;;;103.68;59.85;;;17.80;99.90;;;;;;5043704;28;20025;-81
2021/07/13 03:31:00;;;;;;;100.57;57.75;;;17.70;99.90;;;;;;5042175;28;20038;-79
2021/07/13 03:33:31;;;;;;;104.13;60.33;;;17.70;99.90;;;;;;5040454;28;20086;-81
2021/07/13 03:35:58;;;;;;;108.13;59.30;;;17.70;99.90;;;;;;5031999;28;20041;-78
2021/07/13 03:38:25;;;;;;;102.03;59.60;;;17.60;99.90;;;;;;5049786;28;20056;-80
2021/07/13 03:40:51;;;;;;;101.82;58.35;;;17.70;99.90;;;;;;5018043;28;20036;-81
2021/07/13 03:43:17;;;;;;;99.90;59.47;;;17.60;99.90;;;;;;5042415;28;20045;-81
2021/07/13 03:45:44;;;;;;;102.00;61.15;;;17.60;99.90;;;;;;5023806;28;20116;-81
2021/07/13 03:48:11;;;;;;;110.22;62.30;;;17.70;99.90;;;;;;5017860;28;20121;-78
2021/07/13 03:50:38;;;;;;;117.93;64.85;;;17.70;99.90;;;;;;5027244;28;20117;-78
2021/07/13 03:53:04;;;;;;;109.93;64.15;;;17.70;99.90;;;;;;5024575;28;20045;-79
2021/07/13 03:55:31;;;;;;;105.88;62.95;;;17.80;99.90;;;;;;5044914;28;20088;-79
2021/07/13 03:57:57;;;;;;;99.03;60.45;;;17.80;99.90;;;;;;5043245;28;20047;-79
2021/07/13 04:00:24;;;;;;;;;;;17.90;99.90;;;;;;5039029;28;20029;-80
2021/07/13 04:02:50;;;;;;;93.10;58.58;;;17.90;99.90;;;;;;5037975;28;19925;-81
2021/07/13 04:05:16;;;;;;;100.88;58.78;;;17.90;99.90;;;;;;5034509;28;20049;-79
2021/07/13 04:07:42;;;;;;;99.22;59.63;;;18.00;99.90;;;;;;5046391;28;20037;-79
2021/07/13 04:10:09;;;;;;;;;;;18.00;99.90;;;;;;5040018;28;20419;-79
2021/07/13 04:12:35;;;;;;;114.22;64.38;;;18.00;99.90;;;;;;5040337;28;19983;-80
2021/07/13 04:15:01;;;;;;;114.53;64.38;;;18.00;99.90;;;;;;5015266;28;20041;-78
2021/07/13 04:17:27;;;;;;;112.30;64.32;;;18.00;99.90;;;;;;5031996;28;20182;-79
2021/07/13 04:19:53;;;;;;;;;;;18.10;99.90;;;;;;5043267;28;20378;-80
2021/07/13 04:22:19;;;;;;;104.25;62.30;;;18.10;99.90;;;;;;5032038;28;20394;-79
2021/07/13 04:24:46;;;;;;;100.70;59.72;;;18.10;99.90;;;;;;5043216;28;20394;-81
2021/07/13 04:27:12;;;;;;;104.35;62.58;;;18.20;99.90;;;;;;5042986;28;20455;-80
2021/07/13 04:29:37;;;;;;;108.20;64.88;;;18.20;99.90;;;;;;5040995;28;20065;-80
2021/07/13 04:32:04;;;;;;;;;;;18.20;99.90;;;;;;5039055;28;20061;-79
2021/07/13 04:34:31;;;;;;;106.88;64.70;;;18.20;99.90;;;;;;5022851;28;19917;-81
2021/07/13 04:36:57;;;;;;;107.90;64.95;;;18.30;99.90;;;;;;5019413;28;20065;-82
2021/07/13 04:39:24;;;;;;;108.30;63.13;;;18.40;99.90;;;;;;5022047;28;20116;-81
2021/07/13 04:41:49;;;;;;;;;;;18.50;99.90;;;;;;5044625;28;20159;-80
2021/07/13 04:44:15;;;;;;;100.90;60.25;;;18.50;99.90;;;;;;5045668;28;19920;-82
2021/07/13 04:46:41;;;;;;;;;;;18.60;99.90;;;;;;5042123;28;20033;-81
2021/07/13 04:49:08;;;;;;;96.97;58.20;;;18.70;99.90;;;;;;5045885;28;20480;-81
2021/07/13 04:51:34;;;;;;;98.47;57.97;;;18.70;99.90;;;;;;5023477;28;20486;-82
2021/07/13 04:54:00;;;;;;;93.63;57.38;;;18.90;99.90;;;;;;5037476;28;20033;-80
2021/07/13 04:56:26;;;;;;;92.75;57.50;;;19.00;99.90;;;;;;5056796;28;20037;-81
2021/07/13 04:58:52;;;;;;;;;;;19.10;99.90;;;;;;5056489;28;20037;-82
2021/07/13 05:01:18;;;;;;;90.35;57.33;;;19.20;99.90;;;;;;5052892;28;19916;-81
2021/07/13 05:03:43;;;;;;;;;;;19.20;99.90;;;;;;5040714;28;20049;-80
2021/07/13 05:06:09;;;;;;;86.40;53.22;;;19.20;99.90;;;;;;5052765;28;20295;-83
2021/07/13 05:08:35;;;;;;;82.80;52.85;;;19.20;99.90;;;;;;5047844;28;20155;-80
2021/07/13 05:11:01;;;;;;;83.28;52.90;;;19.30;99.90;;;;;;5047308;28;20143;-81
2021/07/13 05:13:27;;;;;;;76.72;48.00;;;19.30;99.90;;;;;;5042468;28;20041;-82
2021/07/13 05:15:53;;;;;;;;;;;19.40;99.90;;;;;;5052227;28;20044;-82
2021/07/13 05:18:18;;;;;;;68.38;43.08;;;19.50;99.90;;;;;;5031426;28;20027;-81
2021/07/13 05:20:48;;;;;;;;;;;19.50;99.90;;;;;;5049350;28;20037;-81
2021/07/13 05:23:15;;;;;;;63.28;40.10;;;19.50;99.90;;;;;;5045578;28;19917;-82
2021/07/13 05:25:41;;;;;;;64.43;39.63;;;19.70;99.90;;;;;;5049821;28;20485;-81
2021/07/13 05:28:11;;;;;;;56.47;37.70;;;19.70;99.90;;;;;;5032622;28;20047;-80
2021/07/13 05:30:41;;;;;;;56.65;37.65;;;19.80;99.90;;;;;;5034789;28;20032;-81
2021/07/13 05:33:08;;;;;;;55.10;36.25;;;19.90;99.90;;;;;;5050959;28;20121;-79
2021/07/13 05:35:34;;;;;;;54.10;35.47;;;20.00;99.90;;;;;;5046719;28;20049;-80
2021/07/13 05:38:00;;;;;;;54.03;36.75;;;20.00;99.90;;;;;;5044673;28;20056;-80
2021/07/13 05:40:26;;;;;;;56.22;33.80;;;20.20;99.90;;;;;;5044611;28;20376;-80
2021/07/13 05:42:53;;;;;;;50.05;32.38;;;20.20;99.90;;;;;;5037503;28;20052;-79
2021/07/13 05:45:19;;;;;;;47.30;33.38;;;20.20;99.90;;;;;;5037029;28;20041;-83
2021/07/13 05:47:45;;;;;;;44.33;32.55;;;20.30;99.90;;;;;;5038225;28;20041;-83
2021/07/13 05:50:12;;;;;;;47.38;33.72;;;20.40;99.90;;;;;;5017939;28;20044;-84
2021/07/13 05:52:39;;;;;;;50.88;33.65;;;20.40;99.90;;;;;;5031513;28;20063;-82
2021/07/13 05:55:07;;;;;;;55.58;35.72;;;20.40;99.90;;;;;;5031823;28;20091;-83
2021/07/13 05:57:33;;;;;;;56.92;36.08;;;20.30;99.90;;;;;;5039750;28;20083;-83
2021/07/13 05:59:59;;;;;;;54.13;34.00;;;20.30;99.90;;;;;;5018150;28;20045;-78
2021/07/13 06:02:25;;;;;;;49.42;32.25;;;20.20;99.90;;;;;;5037242;28;20041;-79
2021/07/13 06:04:51;;;;;;;51.88;29.50;;;20.20;99.90;;;;;;5040566;28;20047;-78
2021/07/13 06:07:17;;;;;;;50.67;29.70;;;20.20;99.90;;;;;;5041938;28;20059;-77
2021/07/13 06:09:43;;;;;;;42.75;26.05;;;20.10;99.90;;;;;;5021240;28;20060;-78
2021/07/13 06:12:09;;;;;;;36.38;25.42;;;20.20;99.90;;;;;;5048104;28;20549;-79
2021/07/13 06:14:37;;;;;;;35.25;26.85;;;20.10;99.90;;;;;;5037598;28;20041;-81
2021/07/13 06:17:06;;;;;;;32.53;23.60;;;20.20;99.90;;;;;;5037128;28;20044;-82
2021/07/13 06:19:33;;;;;;;32.58;24.42;;;20.30;99.90;;;;;;5046677;28;20028;-79
2021/07/13 06:21:59;;;;;;;31.25;24.38;;;20.40;99.90;;;;;;5020386;28;20053;-81
2021/07/13 06:24:26;;;;;;;33.63;23.95;;;20.50;99.90;;;;;;5038059;28;20037;-81
2021/07/13 06:26:52;;;;;;;32.90;23.25;;;20.50;99.90;;;;;;5056144;28;20044;-83
2021/07/13 06:29:18;;;;;;;31.83;22.95;;;20.60;99.90;;;;;;5005639;28;20064;-81
2021/07/13 06:31:43;;;;;;;29.35;21.35;;;20.70;99.90;;;;;;4995576;28;20049;-81
2021/07/13 06:34:11;;;;;;;;;;;20.60;99.90;;;;;;5019514;28;20063;-82
2021/07/13 06:36:37;;;;;;;;;;;20.60;99.90;;;;;;5030758;28;20003;-80
2021/07/13 06:39:03;;;;;;;28.77;22.57;;;20.70;99.90;;;;;;5004542;28;19924;-81
2021/07/13 06:41:29;;;;;;;25.92;21.83;;;20.80;99.90;;;;;;4973458;28;20073;-82
2021/07/13 06:43:55;;;;;;;28.23;21.55;;;20.90;99.90;;;;;;5031886;28;20069;-82
2021/07/13 06:46:21;;;;;;;29.58;20.60;;;21.00;99.90;;;;;;5039592;28;21679;-83
2021/07/13 06:48:47;;;;;;;31.90;22.13;;;21.00;99.90;;;;;;5013090;28;20195;-81
2021/07/13 06:51:13;;;;;;;30.02;22.08;;;21.00;99.90;;;;;;5020673;28;20474;-79
2021/07/13 06:53:39;;;;;;;28.52;21.35;;;21.10;99.90;;;;;;5034193;28;20490;-81
2021/07/13 06:56:06;;;;;;;31.58;21.30;;;21.20;99.90;;;;;;5035537;28;20115;-83
2021/07/13 06:58:31;;;;;;;28.10;20.60;;;21.30;99.90;;;;;;5011416;28;20049;-81
2021/07/13 07:00:57;;;;;;;29.98;21.88;;;21.40;99.90;;;;;;5003773;28;20079;-81
2021/07/13 07:03:23;;;;;;;29.65;20.63;;;21.50;99.90;;;;;;5036174;28;20409;-81
2021/07/13 07:05:49;;;;;;;28.92;21.20;;;21.40;99.90;;;;;;5035480;28;20045;-82
2021/07/13 07:08:15;;;;;;;26.85;21.27;;;21.50;99.90;;;;;;5010136;28;20553;-81
2021/07/13 07:10:41;;;;;;;27.55;20.65;;;21.50;99.90;;;;;;5038124;28;20115;-84
2021/07/13 07:13:06;;;;;;;27.10;20.67;;;21.50;99.90;;;;;;5030775;28;20040;-81
2021/07/13 07:15:32;;;;;;;31.05;21.83;;;21.60;99.90;;;;;;5035219;28;20483;-81
2021/07/13 07:17:59;;;;;;;25.88;20.02;;;21.70;99.90;;;;;;5042477;28;20111;-82
2021/07/13 07:20:28;;;;;;;29.40;20.67;;;21.80;99.90;;;;;;5030647;28;20034;-83
2021/07/13 07:22:58;;;;;;;26.52;21.17;;;21.80;99.90;;;;;;5022068;28;20039;-82
2021/07/13 07:25:27;;;;;;;28.92;21.13;;;21.80;99.90;;;;;;5031287;28;20045;-82
2021/07/13 07:27:55;;;;;;;28.45;20.42;;;21.80;99.90;;;;;;5017253;28;20053;-82
2021/07/13 07:30:23;;;;;;;26.98;20.70;;;21.70;99.90;;;;;;4985308;28;20045;-85
2021/07/13 07:33:00;;;;;;;30.33;21.50;;;21.70;99.90;;;;;;4972565;28;20157;-83
2021/07/13 07:35:26;;;;;;;26.10;20.70;;;21.60;99.90;;;;;;4960452;28;20576;-85
2021/07/13 07:37:52;;;;;;;26.67;21.40;;;21.50;99.90;;;;;;4983217;28;20603;-82
2021/07/13 07:40:22;;;;;;;26.98;20.30;;;21.50;99.90;;;;;;4962648;28;20047;-84
2021/07/13 07:42:50;;;;;;;26.38;19.35;;;21.50;99.90;;;;;;4970595;28;20050;-85
2021/07/13 07:45:21;;;;;;;26.33;20.20;;;21.40;99.90;;;;;;4969876;28;20046;-85
2021/07/13 07:47:48;;;;;;;25.30;20.98;;;21.60;99.90;;;;;;4964209;28;20079;-80
2021/07/13 07:50:15;;;;;;;23.25;19.17;;;21.70;99.90;;;;;;4976986;28;20043;-84
2021/07/13 07:52:47;;;;;;;25.38;19.88;;;21.80;99.90;;;;;;5002123;28;21372;-83
2021/07/13 07:55:16;;;;;;;25.33;19.23;;;22.00;99.90;;;;;;5020167;28;20045;-84
2021/07/13 07:57:42;;;;;;;24.00;18.45;;;22.10;99.90;;;;;;5000134;28;20049;-82
2021/07/13 08:00:11;;;;;;;20.98;18.38;;;22.20;99.90;;;;;;5054031;28;20119;-79
2021/07/13 08:02:37;;;;;;;22.67;17.75;;;22.30;99.90;;;;;;5044469;28;20376;-81
2021/07/13 08:05:04;;;;;;;22.23;18.02;;;22.50;99.90;;;;;;5027705;28;20570;-84
2021/07/13 08:07:30;;;;;;;21.23;17.67;;;22.60;99.90;;;;;;5031046;28;20041;-83
2021/07/13 08:09:56;;;;;;;22.55;19.02;;;22.80;99.90;;;;;;5025401;28;20084;-84
2021/07/13 08:12:24;;;;;;;18.75;16.23;;;22.90;99.90;;;;;;5029639;28;20041;-81
2021/07/13 08:14:50;;;;;;;19.92;16.35;;;23.00;99.90;;;;;;5041712;28;20049;-83
2021/07/13 08:17:16;;;;;;;21.20;17.15;;;23.00;99.90;;;;;;5018604;28;20048;-84
2021/07/13 08:19:46;;;;;;;19.58;16.17;;;23.20;99.90;;;;;;5039267;28;20072;-83
2021/07/13 08:22:12;;;;;;;18.23;16.42;;;23.40;99.90;;;;;;5015715;28;20051;-78
2021/07/13 08:24:39;;;;;;;20.25;16.60;;;23.40;99.90;;;;;;5027445;28;20052;-78
2021/07/13 08:27:06;;;;;;;20.27;16.38;;;23.50;99.90;;;;;;5034609;28;20645;-79
2021/07/13 08:29:32;;;;;;;20.70;18.25;;;23.70;99.90;;;;;;5036678;28;20033;-78
2021/07/13 08:31:59;;;;;;;19.45;17.33;;;23.90;99.90;;;;;;5029165;28;20070;-78
2021/07/13 08:34:29;;;;;;;22.02;18.13;;;24.00;99.90;;;;;;5002678;28;20060;-77
2021/07/13 08:36:56;;;;;;;21.45;17.75;;;24.20;99.90;;;;;;5010903;28;20398;-77
2021/07/13 08:39:23;;;;;;;19.10;16.17;;;24.40;99.90;;;;;;5038767;28;20048;-77
2021/07/13 08:41:49;;;;;;;20.15;17.55;;;24.50;99.90;;;;;;5014491;28;20056;-79
2021/07/13 08:44:16;;;;;;;21.17;16.77;;;24.60;99.90;;;;;;5038693;28;20045;-80
2021/07/13 08:46:43;;;;;;;22.73;18.60;;;24.40;99.90;;;;;;5035242;28;20048;-78
2021/07/13 08:49:10;;;;;;;20.70;17.77;;;24.40;99.90;;;;;;5043034;28;20090;-79
2021/07/13 08:51:37;;;;;;;21.90;17.30;;;24.20;99.90;;;;;;5040748;28;20046;-79
2021/07/13 08:54:04;;;;;;;19.63;16.95;;;24.10;99.90;;;;;;5045441;28;20049;-79
2021/07/13 08:56:35;;;;;;;23.17;17.02;;;23.90;99.90;;;;;;5047938;28;20680;-79
2021/07/13 08:59:02;;;;;;;22.45;17.85;;;23.90;99.90;;;;;;5035036;28;20067;-81
2021/07/13 09:01:28;;;;;;;22.20;18.55;;;23.80;99.90;;;;;;5018466;28;20074;-82
2021/07/13 09:04:04;;;;;;;26.27;19.55;;;23.90;99.90;;;;;;5023607;28;20474;-79
2021/07/13 09:06:55;;;;;;;21.67;17.77;;;23.80;99.90;;;;;;5038031;28;20651;-83
2021/07/13 09:09:27;;;;;;;29.35;19.88;;;23.80;99.90;;;;;;5030992;28;20103;-82
2021/07/13 09:12:10;;;;;;;26.55;19.25;;;24.00;99.90;;;;;;5030687;28;20048;-84
2021/07/13 09:14:59;;;;;;;24.35;20.27;;;24.10;99.90;;;;;;5017474;28;20090;-81
2021/07/13 09:17:37;;;;;;;29.85;20.75;;;24.10;99.90;;;;;;5040045;28;20437;-83
2021/07/13 09:20:07;;;;;;;25.75;20.00;;;24.10;99.90;;;;;;5024184;28;20037;-83
2021/07/13 09:22:34;;;;;;;22.15;18.70;;;24.00;99.90;;;;;;5016020;28;20036;-83
2021/07/13 09:25:00;;;;;;;25.13;19.33;;;24.10;99.90;;;;;;5020033;28;20084;-84
2021/07/13 09:27:30;;;;;;;22.40;18.42;;;24.00;99.90;;;;;;5036306;28;20033;-85
2021/07/13 09:29:57;;;;;;;24.65;18.80;;;24.00;99.90;;;;;;5043724;28;20096;-82
2021/07/13 09:32:46;;;;;;;24.58;20.35;;;24.00;99.90;;;;;;5061617;28;20087;-85
2021/07/13 09:35:26;;;;;;;19.92;17.08;;;24.00;99.90;;;;;;5020726;28;20043;-85
2021/07/13 09:38:02;;;;;;;20.40;17.70;;;24.10;99.90;;;;;;5043412;28;20068;-83
2021/07/13 09:41:01;;;;;;;;;;;;;;;;;;;;;
2021/07/13 09:43:49;;;;;;;19.63;17.08;;;24.20;99.90;;;;;;5034147;28;20124;-83
2021/07/13 09:46:44;;;;;;;24.67;17.88;;;24.20;99.90;;;;;;5021777;28;20067;-86
2021/07/13 09:49:21;;;;;;;25.98;18.15;;;24.20;99.90;;;;;;5052223;28;20117;-79
2021/07/13 09:51:55;;;;;;;27.00;19.05;;;24.20;99.90;;;;;;5028102;28;20053;-82
2021/07/13 09:54:36;;;;;;;32.42;19.60;;;24.30;99.90;;;;;;5047399;28;20110;-83
2021/07/13 09:57:14;;;;;;;21.20;18.02;;;24.40;99.90;;;;;;5043779;28;20041;-84
2021/07/13 09:59:41;;;;;;;22.83;17.40;;;24.40;99.90;;;;;;5034820;28;20060;-83
2021/07/13 10:02:10;;;;;;;22.05;17.73;;;24.40;99.90;;;;;;5036109;28;20072;-86
2021/07/13 10:04:43;;;;;;;22.25;18.17;;;24.40;99.90;;;;;;5039387;28;20364;-80
2021/07/13 10:07:12;;;;;;;22.80;17.75;;;24.30;99.90;;;;;;5045544;28;20124;-80
2021/07/13 10:09:48;;;;;;;24.10;16.77;;;24.30;99.90;;;;;;5024893;28;20403;-84
2021/07/13 10:12:26;;;;;;;21.23;16.50;;;24.30;99.90;;;;;;5016585;28;20056;-82
2021/07/13 10:14:56;;;;;;;24.95;17.95;;;24.20;99.90;;;;;;5014853;28;20060;-86
2021/07/13 10:17:39;;;;;;;20.10;17.80;;;24.20;99.90;;;;;;5020239;28;20049;-82
2021/07/13 10:20:08;;;;;;;21.73;17.17;;;24.20;99.90;;;;;;5043988;28;20064;-85
2021/07/13 10:22:42;;;;;;;22.23;16.70;;;24.10;99.90;;;;;;5020423;28;20061;-84
2021/07/13 10:25:09;;;;;;;23.02;17.23;;;24.00;99.90;;;;;;5056890;28;20437;-78
2021/07/13 10:27:40;;;;;;;23.90;17.30;;;23.90;99.90;;;;;;5043105;28;20033;-78
2021/07/13 10:30:29;;;;;;;25.35;18.75;;;23.80;99.90;;;;;;5033486;28;20366;-79
2021/07/13 10:32:55;;;;;;;22.88;17.05;;;23.70;99.90;;;;;;5040091;28;20072;-80
2021/07/13 10:35:31;;;;;;;24.05;16.90;;;23.50;99.90;;;;;;5042758;28;20517;-79
2021/07/13 10:38:23;;;;;;;25.73;18.45;;;23.40;99.90;;;;;;5032967;28;20118;-79
2021/07/13 10:40:51;;;;;;;29.40;17.65;;;23.30;99.90;;;;;;5034183;28;20069;-79
2021/07/13 10:43:22;;;;;;;22.45;16.58;;;23.30;99.90;;;;;;5035907;28;20391;-79
2021/07/13 10:46:08;;;;;;;32.40;17.63;;;23.20;99.90;;;;;;5039595;28;20056;-84
2021/07/13 10:48:37;;;;;;;24.05;17.88;;;23.20;99.90;;;;;;5019576;28;20048;-81
2021/07/13 10:51:08;;;;;;;24.20;17.63;;;23.10;99.90;;;;;;5024399;28;20044;-83
2021/07/13 10:53:40;;;;;;;24.52;17.98;;;23.10;99.90;;;;;;5013712;28;20053;-83
2021/07/13 10:56:20;;;;;;;24.95;18.30;;;23.00;99.90;;;;;;5034939;28;20402;-83
2021/07/13 10:58:50;;;;;;;21.35;17.70;;;23.10;99.90;;;;;;5041789;28;20123;-82
2021/07/13 11:01:33;;;;;;;23.80;16.60;;;23.20;99.90;;;;;;5026187;28;20051;-83
2021/07/13 11:04:04;;;;;;;25.88;17.98;;;23.20;99.90;;;;;;5047587;28;20052;-83
2021/07/13 11:06:53;;;;;;;27.52;18.58;;;23.20;99.90;;;;;;5039453;28;20033;-83
2021/07/13 11:09:25;;;;;;;25.75;18.88;;;23.10;99.90;;;;;;5022862;28;20053;-80
2021/07/13 11:11:53;;;;;;;27.75;20.25;;;23.10;99.90;;;;;;5038450;28;20041;-81
2021/07/13 11:14:19;;;;;;;25.38;19.95;;;23.00;99.90;;;;;;5041940;28;20046;-81
2021/07/13 11:16:50;;;;;;;26.85;20.42;;;23.00;99.90;;;;;;5045483;28;20033;-80
2021/07/13 11:19:17;;;;;;;26.58;20.60;;;22.90;99.90;;;;;;5040576;28;20493;-83
2021/07/13 11:21:44;;;;;;;26.52;21.58;;;22.80;99.90;;;;;;5011741;28;20044;-80
2021/07/13 11:24:13;;;;;;;29.60;21.80;;;22.70;99.90;;;;;;5053117;28;20036;-82
2021/07/13 11:26:44;;;;;;;30.98;22.85;;;22.60;99.90;;;;;;5020363;28;20064;-83
2021/07/13 11:29:18;;;;;;;29.77;23.98;;;22.50;99.90;;;;;;5026067;28;20043;-80
2021/07/13 11:31:47;;;;;;;30.50;23.42;;;22.40;99.90;;;;;;5032098;28;20737;-85
2021/07/13 11:34:14;;;;;;;32.60;25.30;;;22.40;99.90;;;;;;5031800;28;20116;-81
2021/07/13 11:36:42;;;;;;;31.00;23.58;;;22.40;99.90;;;;;;5023303;28;20089;-82
2021/07/13 11:39:14;;;;;;;33.63;24.55;;;22.30;99.90;;;;;;5029485;28;20037;-82
2021/07/13 11:41:41;;;;;;;39.53;25.95;;;22.20;99.90;;;;;;5020894;28;20037;-82
2021/07/13 11:44:11;;;;;;;34.35;26.10;;;22.10;99.90;;;;;;5018161;28;20047;-84
2021/07/13 11:46:47;;;;;;;38.50;27.98;;;22.00;99.90;;;;;;5033886;28;20037;-81
2021/07/13 11:49:19;;;;;;;46.28;30.60;;;21.90;99.90;;;;;;5039597;28;20051;-84
2021/07/13 11:51:56;;;;;;;40.40;29.17;;;21.80;99.90;;;;;;5029279;28;20088;-81
2021/07/13 11:54:27;;;;;;;42.47;27.92;;;21.70;99.90;;;;;;5017595;28;20045;-81
2021/07/13 11:56:57;;;;;;;46.05;29.45;;;21.50;99.90;;;;;;5034870;28;20049;-84
2021/07/13 11:59:29;;;;;;;43.92;29.52;;;21.40;99.90;;;;;;5040387;28;20032;-82
2021/07/13 12:02:08;;;;;;;37.53;26.27;;;21.30;99.90;;;;;;5037950;28;20033;-83
2021/07/13 12:04:41;;;;;;;42.08;29.50;;;21.20;99.90;;;;;;5030077;28;20065;-82
2021/07/13 12:07:07;;;;;;;42.70;28.98;;;21.10;99.90;;;;;;5046015;28;20044;-82
2021/07/13 12:09:38;;;;;;;45.42;27.58;;;21.10;99.90;;;;;;5059775;28;20057;-84
2021/07/13 12:12:10;;;;;;;39.22;25.27;;;21.00;99.90;;;;;;5044362;28;20040;-82
2021/07/13 12:14:40;;;;;;;40.20;26.08;;;21.10;99.90;;;;;;5007846;28;20046;-83
2021/07/13 12:17:06;;;;;;;37.53;25.77;;;21.10;99.90;;;;;;5027158;28;20478;-82
2021/07/13 12:19:34;;;;;;;40.45;26.55;;;21.10;99.90;;;;;;5024132;28;20128;-82
2021/07/13 12:22:06;;;;;;;40.50;25.92;;;21.00;99.90;;;;;;5037681;28;20068;-81
2021/07/13 12:24:35;;;;;;;45.10;27.23;;;20.90;99.90;;;;;;5039251;28;20803;-84
2021/07/13 12:27:05;;;;;;;49.70;27.88;;;20.80;99.90;;;;;;5032531;28;20043;-79
2021/07/13 12:29:35;;;;;;;47.72;27.63;;;20.70;99.90;;;;;;5039539;28;20051;-81
2021/07/13 12:32:03;;;;;;;45.13;26.85;;;20.70;99.90;;;;;;5040234;28;20544;-80
2021/07/13 12:34:32;;;;;;;40.75;28.58;;;20.60;99.90;;;;;;5038193;28;20110;-76
2021/07/13 12:37:16;;;;;;;41.58;27.95;;;20.60;99.90;;;;;;5045112;28;20040;-84
2021/07/13 12:39:51;;;;;;;40.78;26.30;;;20.60;99.90;;;;;;5026391;28;20051;-83
2021/07/13 12:42:22;;;;;;;49.83;28.10;;;20.60;99.90;;;;;;5018960;28;20037;-81
2021/07/13 12:44:54;;;;;;;48.10;29.70;;;20.50;99.90;;;;;;5019284;28;20029;-79